Aérodrome :
LOGIN :

S'inscrire | Disclaimer

   EN    FR    IT 

 










Légende :    VFR   VFR Marginal   IFR   IFR Intensif   IFR Très Intensif
Visi : 
Plafond : 
>= 8 km
>= 3000ft
5 à 8 km
1000 à 3000 ft
1500m à 5 km
500 à 1000 ft
800 à 1500m
200 à 500 ft
< 800m
< 200 ft
Symboles :   Orages  Brouillard  Fortes neiges  Fortes précipitations  Vent > 20 kt
SIGMETs :   Divers  Orages  Givrage  Turbulence  Onde Orograph.  Cendres Volcan.







- Altitude de l'aérodrome : 913 ft
- Voir les cartes d'approche


LFSX - Luxeuil

DERNIER METAR :
  • 220600Z AUTO 23009KT 210V270 9999 OVC034 09/08 Q1019 TEMPO 3000 DZRA BKN007 OVC030

METARs EXPIRÉS :
  • 220530Z AUTO 23006KT 9999 FEW013 BKN034 OVC042 09/08 Q1019
  • 220500Z AUTO 21007KT 9999 BKN038 OVC044 09/08 Q1019
  • 220430Z AUTO 22007KT 9999 OVC042 09/08 Q1019
  • 220400Z AUTO 24005KT 9999 FEW013 OVC042 09/08 Q1019
  • 220330Z AUTO 24005KT 9999 OVC039 09/08 Q1019

TAF AMD TAF LFSX
Valide du 22 à 05h jusqu'au 23 à 03h UTC


220540Z 2205/2303 23010G20KT 9999 BKN030
TEMPO 2205/2210 3000 DZRA BKN007 OVC030
TEMPO 2210/2218 4000 DZ BKN010 OVC030
Pas de NOTAMs connus pour ce terrain.



MET'MAP, la Météo Aéronautique d'un coup d'oeil ! - Copyright ORBIFLY Décembre 2007 - Disclaimer

ORBIFLY MET'MAP TEAM :

Programmation & Développement : Alexandra Zaïnal
Conception & Développement : Baudouin d'Aumeries
Co-Programmation & Développement : Marc-Olivier Méhu
Soutien technique & logistique : Manuel Goepfert

Contact : metmap@orbifly.com




SOURCES & CREDITS :

   NOAA